Time;durP1;ratioP1;P1;durP2;ratioP2;P2;SDS_P1;SDS_P2;PMS_P1;PMS_P2;Temp;Humidity;BMP_temperature;BMP_pressure;BME280_temperature;BME280_humidity;BME280_pressure;Samples;Min_cycle;Max_cycle;Signal;HPM_P1;HPM_P2
2021/06/19 00:02:17;;;;;;;4.75;3.13;;;;;;;22.74;42.71;101492.88;5010451;28;20040;-70
2021/06/19 00:04:42;;;;;;;5.78;3.67;;;;;;;22.71;42.82;101489.53;5008983;28;20029;-70
2021/06/19 00:07:08;;;;;;;4.95;3.38;;;;;;;22.72;42.57;101495.72;4996354;28;20036;-70
2021/06/19 00:09:34;;;;;;;4.65;3.10;;;;;;;22.72;42.44;101495.72;4992562;28;20323;-70
2021/06/19 00:12:00;;;;;;;5.28;3.30;;;;;;;22.72;42.46;101501.06;5006998;28;20525;-69
2021/06/19 00:14:27;;;;;;;6.15;3.53;;;;;;;22.71;42.48;101496.75;4990567;28;20133;-70
2021/06/19 00:16:52;;;;;;;5.57;3.45;;;;;;;22.70;42.28;101495.91;5004534;28;20042;-70
2021/06/19 00:19:18;;;;;;;4.82;2.97;;;;;;;22.68;42.42;101491.81;5002783;28;20041;-70
2021/06/19 00:21:43;;;;;;;5.57;3.20;;;;;;;22.69;42.68;101499.63;4978480;28;20840;-70
2021/06/19 00:24:10;;;;;;;4.80;3.30;;;;;;;22.69;42.46;101499.63;5008286;28;20057;-70
2021/06/19 00:26:37;;;;;;;5.85;3.40;;;;;;;22.68;42.66;101495.28;4999000;28;20046;-70
2021/06/19 00:29:03;;;;;;;5.13;3.17;;;;;;;22.68;42.66;101489.94;5006360;28;20033;-72
2021/06/19 00:31:28;;;;;;;4.68;2.95;;;;;;;22.67;42.49;101490.97;5009783;28;20036;-70
2021/06/19 00:33:54;;;;;;;5.88;3.33;;;;;;;22.68;42.66;101489.13;4974557;28;20099;-70
2021/06/19 00:36:19;;;;;;;4.05;2.95;;;;;;;22.67;42.35;101482.94;5009222;28;20044;-70
2021/06/19 00:38:45;;;;;;;4.80;3.20;;;;;;;22.67;42.45;101479.44;5009123;28;20064;-69
2021/06/19 00:41:10;;;;;;;4.40;2.97;;;;;;;22.67;42.74;101476.78;5008954;28;20057;-70
2021/06/19 00:43:35;;;;;;;5.10;3.00;;;;;;;22.67;42.57;101474.94;5009314;28;20121;-70
2021/06/19 00:46:01;;;;;;;3.45;2.65;;;;;;;22.67;42.55;101471.44;4991719;28;20042;-70
2021/06/19 00:48:27;;;;;;;4.35;2.88;;;;;;;22.68;42.70;101467.72;4974918;28;20156;-70
2021/06/19 00:50:53;;;;;;;5.22;2.90;;;;;;;22.67;42.58;101471.44;4974798;28;20042;-70
2021/06/19 00:53:18;;;;;;;4.75;2.85;;;;;;;22.68;42.74;101460.53;5005259;28;20041;-70
2021/06/19 00:55:43;;;;;;;4.70;2.95;;;;;;;22.67;42.88;101456.22;4991742;28;20033;-70
2021/06/19 00:58:09;;;;;;;6.25;2.92;;;;;;;22.67;42.89;101450.84;5008854;28;20034;-69
2021/06/19 01:00:35;;;;;;;4.00;2.63;;;;;;;22.68;42.96;101449.84;5003179;28;20229;-70
2021/06/19 01:03:00;;;;;;;3.85;2.70;;;;;;;22.68;42.84;101443.66;4980593;28;20033;-70
2021/06/19 01:05:27;;;;;;;4.85;2.70;;;;;;;22.67;42.76;101445.50;4970597;28;20034;-70
2021/06/19 01:07:55;;;;;;;4.70;2.72;;;;;;;22.67;42.99;101442.84;4975079;28;20045;-70
2021/06/19 01:10:21;;;;;;;5.45;3.20;;;;;;;22.67;42.55;101445.50;5008865;28;20079;-70
2021/06/19 01:12:47;;;;;;;4.57;2.70;;;;;;;22.67;42.50;101439.34;5008908;28;20469;-71
2021/06/19 01:15:13;;;;;;;5.28;3.20;;;;;;;22.67;42.39;101444.69;4991304;28;20477;-70
2021/06/19 01:17:39;;;;;;;4.28;3.03;;;;;;;22.67;42.38;101442.00;5002466;28;20026;-70
2021/06/19 01:20:10;;;;;;;5.15;3.20;;;;;;;22.66;42.39;101445.72;5015057;28;20030;-69
2021/06/19 01:22:37;;;;;;;6.30;3.35;;;;;;;22.66;42.31;101437.69;4989666;28;20025;-73
2021/06/19 01:25:06;;;;;;;4.32;2.95;;;;;;;22.65;42.35;101439.53;4990022;28;20030;-70
2021/06/19 01:27:32;;;;;;;4.45;2.88;;;;;;;22.65;42.55;101444.88;4998150;28;20120;-69
2021/06/19 01:29:59;;;;;;;3.33;2.65;;;;;;;22.65;42.27;101442.22;5014660;28;20069;-70
2021/06/19 01:32:29;;;;;;;4.20;2.90;;;;;;;22.64;42.44;101437.06;5014955;28;20044;-70
2021/06/19 01:34:55;;;;;;;5.93;3.10;;;;;;;22.65;42.71;101431.53;5013848;28;20073;-69
2021/06/19 01:37:21;;;;;;;4.93;2.72;;;;;;;22.65;42.83;101436.03;5014703;28;20034;-70
2021/06/19 01:39:47;;;;;;;4.82;2.78;;;;;;;22.65;42.71;101428.84;4996820;28;20666;-70
2021/06/19 01:42:12;;;;;;;4.55;2.60;;;;;;;22.65;42.72;101431.53;4997000;28;20493;-70
2021/06/19 01:44:38;;;;;;;4.53;3.15;;;;;;;22.64;42.65;101427.19;5002428;28;20045;-70
2021/06/19 01:47:04;;;;;;;3.80;2.45;;;;;;;22.64;42.57;101429.88;4988860;28;20030;-70
2021/06/19 01:49:37;;;;;;;4.45;2.53;;;;;;;22.64;42.60;101434.41;4983128;28;20037;-70
2021/06/19 01:52:04;;;;;;;4.45;2.70;;;;;;;22.64;42.35;101432.56;4994400;28;20038;-70
2021/06/19 01:54:37;;;;;;;5.07;2.92;;;;;;;22.64;42.57;101435.22;5011174;28;20030;-70
2021/06/19 01:57:05;;;;;;;5.18;2.75;;;;;;;22.64;42.25;101429.88;5014585;28;20088;-69
2021/06/19 01:59:31;;;;;;;5.97;3.00;;;;;;;22.63;42.23;101433.56;4980628;28;20574;-69
2021/06/19 02:01:59;;;;;;;4.63;2.60;;;;;;;22.64;42.13;101434.41;4971177;28;20026;-70
2021/06/19 02:04:25;;;;;;;3.15;2.60;;;;;;;22.64;42.13;101439.75;4996123;28;20044;-70
2021/06/19 02:06:50;;;;;;;6.38;3.13;;;;;;;22.64;42.32;101434.41;4996806;28;20109;-70
2021/06/19 02:09:16;;;;;;;4.40;2.92;;;;;;;22.62;41.93;101431.94;5015224;28;20117;-70
2021/06/19 02:11:42;;;;;;;4.15;2.80;;;;;;;22.61;41.87;101432.97;4997119;28;20049;-70
2021/06/19 02:14:07;;;;;;;4.32;2.55;;;;;;;22.63;41.97;101436.25;5014531;28;20072;-70
2021/06/19 02:16:33;;;;;;;4.22;2.55;;;;;;;22.62;42.26;101426.59;4997675;28;20531;-71
2021/06/19 02:18:59;;;;;;;4.07;2.60;;;;;;;22.63;41.86;101422.06;5004994;28;20029;-70
2021/06/19 02:21:24;;;;;;;4.55;3.00;;;;;;;22.62;42.01;101421.22;5006317;28;20113;-70
2021/06/19 02:23:49;;;;;;;4.43;2.85;;;;;;;22.62;42.15;101420.41;5014465;28;20088;-70
2021/06/19 02:26:15;;;;;;;4.65;2.75;;;;;;;22.61;42.20;101424.94;4979655;28;20038;-70
2021/06/19 02:28:41;;;;;;;4.97;2.65;;;;;;;22.62;42.13;101420.41;4993021;28;20045;-70
2021/06/19 02:31:06;;;;;;;6.38;3.00;;;;;;;22.61;42.00;101418.75;5010490;28;20108;-70
2021/06/19 02:33:33;;;;;;;5.15;2.85;;;;;;;22.62;42.20;101417.75;4982375;28;20034;-70
2021/06/19 02:35:58;;;;;;;4.47;2.42;;;;;;;22.61;41.85;101413.41;5008282;28;20030;-70
2021/06/19 02:38:24;;;;;;;5.53;3.03;;;;;;;22.60;41.75;101417.94;5010910;28;20087;-69
2021/06/19 02:40:51;;;;;;;5.20;2.78;;;;;;;22.62;41.89;101412.38;4993838;28;20386;-70
2021/06/19 02:43:18;;;;;;;3.53;2.50;;;;;;;22.60;41.98;101415.28;4993771;28;20034;-70
2021/06/19 02:45:44;;;;;;;4.32;2.75;;;;;;;22.61;41.97;101410.75;5011080;28;20096;-70
2021/06/19 02:48:09;;;;;;;4.72;2.92;;;;;;;22.60;41.84;101412.59;5010435;28;20038;-70
2021/06/19 02:50:37;;;;;;;4.43;2.60;;;;;;;22.60;41.49;101406.41;4977600;28;20040;-73
2021/06/19 02:53:05;;;;;;;4.35;2.53;;;;;;;22.60;41.99;101409.09;5003401;28;20049;-70
2021/06/19 02:55:33;;;;;;;4.38;2.72;;;;;;;22.59;41.69;101404.78;4993914;28;20041;-69
2021/06/19 02:57:59;;;;;;;3.70;2.50;;;;;;;22.60;41.96;101406.41;4998191;28;20082;-70
2021/06/19 03:00:25;;;;;;;4.53;2.88;;;;;;;22.60;41.88;101406.41;4997273;28;20061;-70
2021/06/19 03:02:51;;;;;;;3.83;2.70;;;;;;;22.61;41.75;101402.72;4992834;28;20557;-70
2021/06/19 03:05:22;;;;;;;3.65;2.63;;;;;;;22.59;42.07;101400.25;5010813;28;20046;-69
2021/06/19 03:07:48;;;;;;;4.20;2.67;;;;;;;22.59;41.93;101402.09;5010566;28;20040;-69
2021/06/19 03:10:16;;;;;;;4.50;2.83;;;;;;;22.60;41.83;101404.56;5010522;28;20038;-70
2021/06/19 03:12:42;;;;;;;3.55;2.53;;;;;;;22.59;41.63;101402.09;4993604;28;20038;-70
2021/06/19 03:15:09;;;;;;;3.35;2.50;;;;;;;22.59;41.72;101402.94;4992945;28;20065;-69
2021/06/19 03:17:35;;;;;;;3.75;2.78;;;;;;;22.58;41.52;101400.47;4977254;28;20068;-73
2021/06/19 03:20:03;;;;;;;4.90;3.20;;;;;;;22.58;41.65;101393.25;4992614;28;20725;-69
2021/06/19 03:22:40;;;;;;;5.57;2.83;;;;;;;22.56;41.51;101394.47;5010854;28;20038;-70
2021/06/19 03:25:10;;;;;;;3.58;2.78;;;;;;;22.58;41.35;101395.09;5011089;28;20026;-70
2021/06/19 03:27:35;;;;;;;4.10;2.80;;;;;;;22.57;41.60;101391.63;4976948;28;20030;-70
2021/06/19 03:30:01;;;;;;;4.55;2.72;;;;;;;22.57;41.15;101396.13;4993314;28;20056;-69
2021/06/19 03:32:26;;;;;;;3.45;2.45;;;;;;;22.56;41.48;101389.13;5002619;28;20026;-69
2021/06/19 03:34:52;;;;;;;4.30;2.83;;;;;;;22.56;41.52;101381.91;5002006;28;20038;-70
2021/06/19 03:37:17;;;;;;;4.30;2.55;;;;;;;22.56;41.16;101389.13;5007942;28;20096;-70
2021/06/19 03:39:43;;;;;;;4.78;3.15;;;;;;;22.55;40.97;101390.97;5009640;28;20056;-69
2021/06/19 03:42:08;;;;;;;5.00;2.70;;;;;;;22.55;40.99;101388.28;4992933;28;20057;-70
2021/06/19 03:44:34;;;;;;;3.42;2.60;;;;;;;22.54;41.28;101385.81;4992730;28;20042;-70
2021/06/19 03:46:59;;;;;;;4.60;3.17;;;;;;;22.54;40.88;101391.16;4992268;28;20040;-69
2021/06/19 03:49:25;;;;;;;4.40;3.03;;;;;;;22.53;40.77;101387.66;5009479;28;20574;-69
2021/06/19 03:51:50;;;;;;;3.35;2.60;;;;;;;22.53;41.11;101390.34;5010010;28;20045;-70
2021/06/19 03:54:16;;;;;;;3.83;2.70;;;;;;;22.53;40.93;101389.53;4972949;28;20038;-70
2021/06/19 03:56:42;;;;;;;4.03;2.92;;;;;;;22.52;41.11;101394.03;5004681;28;20188;-70
2021/06/19 03:59:08;;;;;;;5.43;3.30;;;;;;;22.53;40.65;101389.53;5009677;28;20034;-70
2021/06/19 04:01:33;;;;;;;3.95;2.80;;;;;;;22.51;40.86;101387.06;4992658;28;20041;-71
2021/06/19 04:03:59;;;;;;;5.07;2.97;;;;;;;22.51;40.64;101381.72;4974961;28;20110;-70
2021/06/19 04:06:24;;;;;;;4.10;2.50;;;;;;;22.51;40.96;101381.72;4976407;28;20496;-70
2021/06/19 04:08:50;;;;;;;3.95;2.70;;;;;;;22.50;40.73;101388.09;4991696;28;20492;-70
2021/06/19 04:11:17;;;;;;;4.43;2.90;;;;;;;22.51;41.12;101384.38;4992986;28;20034;-69
2021/06/19 04:13:42;;;;;;;4.85;3.08;;;;;;;22.51;40.95;101384.38;5009838;28;20058;-70
2021/06/19 04:16:12;;;;;;;4.93;3.20;;;;;;;22.51;40.89;101380.88;4989913;28;20044;-70
2021/06/19 04:18:38;;;;;;;4.30;2.60;;;;;;;22.51;40.77;101387.06;4980152;28;20503;-70
2021/06/19 04:21:05;;;;;;;4.25;3.03;;;;;;;22.50;40.59;101385.41;4995818;28;20045;-70
2021/06/19 04:23:33;;;;;;;3.80;2.55;;;;;;;22.51;40.43;101383.56;4988534;28;20034;-70
2021/06/19 04:26:00;;;;;;;4.68;2.95;;;;;;;22.50;40.82;101382.72;4972872;28;20034;-70
2021/06/19 04:28:26;;;;;;;3.78;2.78;;;;;;;22.51;40.48;101372.88;5008449;28;20809;-70
2021/06/19 04:30:53;;;;;;;4.50;2.60;;;;;;;22.51;40.64;101372.88;4991408;28;20188;-69
2021/06/19 04:33:19;;;;;;;4.35;2.60;;;;;;;22.50;40.60;101372.03;5008753;28;20057;-68
2021/06/19 04:35:45;;;;;;;4.05;2.63;;;;;;;22.50;40.56;101369.38;5009425;28;20081;-69
2021/06/19 04:38:10;;;;;;;4.43;2.60;;;;;;;22.49;40.52;101367.72;5009053;28;20490;-68
2021/06/19 04:43:07;;;;;;;3.88;2.63;;;;;;;22.49;40.75;101367.72;4976272;28;20133;-68
2021/06/19 04:45:34;;;;;;;4.32;2.85;;;;;;;22.50;40.73;101356.00;4991918;28;20038;-69
2021/06/19 04:48:02;;;;;;;4.38;2.67;;;;;;;22.50;40.53;101357.84;5008703;28;20117;-68
2021/06/19 04:50:28;;;;;;;3.58;2.50;;;;;;;22.49;40.69;101362.38;5008577;28;20030;-69
2021/06/19 04:52:53;;;;;;;3.85;2.50;;;;;;;22.49;40.57;101357.03;5007719;28;20588;-69
2021/06/19 04:55:19;;;;;;;4.43;2.60;;;;;;;22.49;40.86;101354.34;5008852;28;20026;-69
2021/06/19 04:57:52;;;;;;;3.40;2.90;;;;;;;22.48;40.60;101344.69;4991126;28;20139;-69
2021/06/19 05:00:19;;;;;;;3.80;2.60;;;;;;;22.49;40.79;101350.84;5008781;28;20605;-68
2021/06/19 05:02:45;;;;;;;4.43;2.47;;;;;;;22.48;40.77;101352.72;5008504;28;20057;-68
2021/06/19 05:05:11;;;;;;;3.95;2.67;;;;;;;22.48;40.96;101342.00;5008527;28;20034;-68
2021/06/19 05:07:37;;;;;;;4.70;2.80;;;;;;;22.48;40.66;101339.34;4991409;28;20034;-68
2021/06/19 05:10:05;;;;;;;4.13;2.78;;;;;;;22.48;40.85;101333.16;4991534;28;20076;-68
2021/06/19 05:12:31;;;;;;;4.07;2.70;;;;;;;22.48;40.87;101338.53;5008608;28;20029;-69
2021/06/19 05:14:57;;;;;;;3.63;2.50;;;;;;;22.48;40.66;101339.34;5008998;28;20054;-68
2021/06/19 05:17:22;;;;;;;3.78;2.60;;;;;;;22.49;40.80;101327.63;5008648;28;20030;-68
2021/06/19 05:19:48;;;;;;;4.13;2.60;;;;;;;22.48;40.97;101330.50;5004225;28;20026;-68
2021/06/19 05:22:13;;;;;;;5.05;2.80;;;;;;;22.48;40.81;101320.63;5008936;28;20096;-68
2021/06/19 05:24:38;;;;;;;4.05;2.60;;;;;;;22.48;41.12;101323.31;4991017;28;20462;-68
2021/06/19 05:27:04;;;;;;;4.05;2.47;;;;;;;22.48;40.65;101312.59;5009426;28;20037;-68
2021/06/19 05:29:30;;;;;;;4.80;2.67;;;;;;;22.48;40.97;101312.59;4974849;28;20523;-68
2021/06/19 05:31:55;;;;;;;3.63;2.88;;;;;;;22.48;40.75;101317.94;5008765;28;20030;-69
2021/06/19 05:34:21;;;;;;;5.38;2.70;;;;;;;22.48;40.75;101314.47;5007717;28;20080;-68
2021/06/19 05:36:46;;;;;;;4.93;2.40;;;;;;;22.48;40.68;101317.94;5008390;28;20697;-68
2021/06/19 05:39:12;;;;;;;3.15;2.58;;;;;;;22.48;41.11;101323.31;5007679;28;20346;-68
2021/06/19 05:41:38;;;;;;;3.17;2.25;;;;;;;22.48;41.11;101325.97;4990018;28;20034;-68
2021/06/19 05:44:08;;;;;;;3.35;2.35;;;;;;;22.49;41.12;101313.44;4991007;28;20030;-68
2021/06/19 05:46:33;;;;;;;4.13;2.83;;;;;;;22.48;41.11;101317.13;4991222;28;20060;-69
2021/06/19 05:49:03;;;;;;;3.45;2.58;;;;;;;22.46;40.63;101309.31;4989630;28;20553;-68
2021/06/19 05:51:29;;;;;;;4.45;2.45;;;;;;;22.48;40.66;101319.81;5007973;28;20045;-68
2021/06/19 05:53:55;;;;;;;4.18;2.65;;;;;;;22.47;40.68;101318.97;5007462;28;20030;-68
2021/06/19 05:56:20;;;;;;;3.45;2.20;;;;;;;22.46;40.77;101325.34;4990126;28;20030;-68
2021/06/19 05:58:46;;;;;;;4.10;2.45;;;;;;;22.47;40.57;101324.31;4989798;28;20038;-69
2021/06/19 06:01:12;;;;;;;3.38;2.70;;;;;;;22.49;40.66;101324.13;4991259;28;20590;-68
2021/06/19 06:03:37;;;;;;;4.22;2.70;;;;;;;22.47;40.55;101318.97;4992218;28;20033;-69
2021/06/19 06:06:03;;;;;;;3.15;2.40;;;;;;;22.47;40.70;101320.84;4982586;28;20040;-68
2021/06/19 06:08:28;;;;;;;4.53;2.50;;;;;;;22.47;40.92;101320.84;4994555;28;20038;-70
2021/06/19 06:10:54;;;;;;;4.13;2.72;;;;;;;22.45;40.64;101313.03;5011777;28;20525;-69
2021/06/19 06:13:20;;;;;;;4.43;2.83;;;;;;;22.46;40.90;101309.31;5011978;28;20050;-68
2021/06/19 06:15:45;;;;;;;4.10;2.53;;;;;;;22.47;40.60;101305.63;5011732;28;20065;-69
2021/06/19 06:18:10;;;;;;;4.78;2.58;;;;;;;22.47;40.81;101304.78;5010948;28;20776;-68
2021/06/19 06:20:36;;;;;;;3.85;2.72;;;;;;;22.46;40.51;101303.97;5012063;28;20512;-68
2021/06/19 06:23:01;;;;;;;5.85;3.05;;;;;;;22.47;40.68;101302.94;5011714;28;20662;-68
2021/06/19 06:25:27;;;;;;;4.35;2.92;;;;;;;22.47;40.61;101308.28;5012424;28;20110;-69
2021/06/19 06:27:52;;;;;;;4.05;2.90;;;;;;;22.46;40.91;101314.66;5009835;28;20038;-69
2021/06/19 06:30:18;;;;;;;4.10;2.60;;;;;;;22.46;40.65;101303.97;5011406;28;20378;-68
2021/06/19 06:32:44;;;;;;;4.47;2.53;;;;;;;22.47;40.70;101302.94;4975870;28;20405;-68
2021/06/19 06:35:10;;;;;;;4.00;2.50;;;;;;;22.46;40.98;101300.47;5011414;28;20026;-68
2021/06/19 06:37:37;;;;;;;3.58;2.53;;;;;;;22.45;40.96;101302.31;5011587;28;20073;-71
2021/06/19 06:40:03;;;;;;;3.65;2.45;;;;;;;22.45;40.61;101307.66;4977719;28;20454;-68
2021/06/19 06:42:29;;;;;;;4.45;2.30;;;;;;;22.45;40.94;101306.84;4977864;28;20037;-69
2021/06/19 06:44:54;;;;;;;4.15;2.58;;;;;;;22.44;40.77;101305.22;4993668;28;20123;-69
2021/06/19 06:47:20;;;;;;;4.90;2.38;;;;;;;22.44;40.76;101308.69;4993508;28;20389;-65
2021/06/19 06:49:45;;;;;;;3.80;2.38;;;;;;;22.44;40.62;101314.06;4984808;28;20038;-75
2021/06/19 06:52:11;;;;;;;4.03;2.47;;;;;;;22.44;40.91;101311.38;4990153;28;20060;-68
2021/06/19 06:54:39;;;;;;;4.40;2.47;;;;;;;22.44;40.81;101319.41;5004549;28;20053;-68
2021/06/19 06:57:09;;;;;;;3.92;2.05;;;;;;;22.44;41.35;101322.06;4975199;28;20198;-67
2021/06/19 06:59:36;;;;;;;7.57;2.47;;;;;;;22.47;41.67;101318.16;4962522;28;20494;-66
2021/06/19 07:02:02;;;;;;;6.15;2.28;;;;;;;22.47;41.95;101318.97;4979233;28;20049;-68
2021/06/19 07:04:28;;;;;;;5.03;2.20;;;;;;;22.48;41.90;101315.28;4959101;28;20039;-64
2021/06/19 07:06:54;;;;;;;5.25;2.40;;;;;;;22.48;42.17;101320.63;4989312;28;20048;-68
2021/06/19 07:09:19;;;;;;;8.43;2.20;;;;;;;22.50;42.33;101323.09;4993232;28;20038;-68
2021/06/19 07:11:45;;;;;;;7.45;2.58;;;;;;;22.49;42.11;101324.94;4974787;28;20137;-68
2021/06/19 07:14:10;;;;;;;6.07;2.15;;;;;;;22.50;42.43;101331.13;4972789;28;20490;-68
2021/06/19 07:16:36;;;;;;;8.73;2.13;;;;;;;22.51;42.23;101328.22;4955383;28;20267;-67
2021/06/19 07:19:02;;;;;;;3.85;2.50;;;;;;;22.52;42.77;101324.53;4974983;28;20299;-67
2021/06/19 07:21:27;;;;;;;5.50;1.98;;;;;;;22.52;42.70;101321.03;4972867;28;20041;-68
2021/06/19 07:23:53;;;;;;;7.53;2.40;;;;;;;22.53;42.67;101318.16;4989263;28;20030;-64
2021/06/19 07:26:19;;;;;;;3.42;1.80;;;;;;;22.54;42.41;101321.66;4992321;28;20048;-67
2021/06/19 07:28:44;;;;;;;6.80;2.45;;;;;;;22.53;42.48;101314.66;4969967;28;20050;-67
2021/06/19 07:31:11;;;;;;;4.05;2.38;;;;;;;22.54;42.62;101318.97;5004415;28;20124;-66
2021/06/19 07:33:37;;;;;;;6.50;2.08;;;;;;;22.54;42.77;101313.63;5010065;28;20362;-68
2021/06/19 07:36:04;;;;;;;5.45;2.05;;;;;;;22.54;42.97;101309.09;4973565;28;20042;-66
2021/06/19 07:38:30;;;;;;;4.43;2.08;;;;;;;22.54;42.75;101311.78;4956401;28;20046;-67
2021/06/19 07:40:56;;;;;;;5.72;2.60;;;;;;;22.55;43.81;101308.06;4988934;28;20434;-66
2021/06/19 07:43:25;;;;;;;6.32;2.47;;;;;;;22.56;44.09;101315.06;4972245;28;20151;-65
2021/06/19 07:45:52;;;;;;;3.53;2.38;;;;;;;22.57;44.16;101314.06;4990860;28;20084;-66
2021/06/19 07:48:18;;;;;;;6.00;2.35;;;;;;;22.59;44.58;101311.19;4987344;28;20041;-67
2021/06/19 07:50:44;;;;;;;7.53;2.78;;;;;;;22.60;44.47;101320.84;4991206;28;20113;-69
2021/06/19 07:53:10;;;;;;;7.00;3.10;;;;;;;22.60;44.85;101316.31;4989915;28;20034;-68
2021/06/19 07:55:36;;;;;;;5.70;2.80;;;;;;;22.61;44.98;101319.81;4992075;28;20030;-67
2021/06/19 07:58:03;;;;;;;5.93;2.70;;;;;;;22.61;44.54;101314.47;4991800;28;20038;-68
2021/06/19 08:00:30;;;;;;;5.68;2.67;;;;;;;22.62;44.68;101322.28;4992193;28;20275;-69
2021/06/19 08:02:59;;;;;;;9.32;2.65;;;;;;;22.63;44.79;101323.94;4972469;28;20034;-67
2021/06/19 08:05:25;;;;;;;6.72;2.78;;;;;;;22.63;44.66;101325.78;4958787;28;20434;-67
2021/06/19 08:07:51;;;;;;;7.93;2.58;;;;;;;22.63;44.51;101323.94;4987311;28;20038;-67
2021/06/19 08:10:17;;;;;;;7.53;2.55;;;;;;;22.64;44.08;101320.22;4987933;28;20038;-70
2021/06/19 08:12:43;;;;;;;4.45;2.13;;;;;;;22.63;44.08;101326.59;4970294;28;20355;-64
2021/06/19 08:15:10;;;;;;;6.97;2.47;;;;;;;22.63;43.86;101326.59;4953884;28;20081;-65
2021/06/19 08:17:35;;;;;;;5.90;2.00;;;;;;;22.62;43.98;101327.63;4974493;28;20037;-64
2021/06/19 08:20:02;;;;;;;8.25;2.17;;;;;;;22.62;43.94;101329.50;4987678;28;20034;-63
2021/06/19 08:22:27;;;;;;;6.05;2.03;;;;;;;22.62;43.54;101329.50;4974193;28;20065;-65
2021/06/19 08:24:53;;;;;;;4.20;1.85;;;;;;;22.61;43.45;101322.50;4968607;28;20077;-63
2021/06/19 08:27:22;;;;;;;6.63;2.28;;;;;;;22.59;43.18;101330.72;4987611;28;20049;-67
2021/06/19 08:29:49;;;;;;;7.40;2.33;;;;;;;22.58;43.18;101326.41;4971940;28;20025;-66
2021/06/19 08:32:15;;;;;;;5.97;2.22;;;;;;;22.58;42.88;101323.75;4976486;28;20046;-64
2021/06/19 08:34:40;;;;;;;13.77;2.13;;;;;;;22.57;43.07;101319.41;4971851;28;20095;-65
2021/06/19 08:37:06;;;;;;;4.63;2.10;;;;;;;22.57;43.14;101315.91;4950057;28;20045;-66
2021/06/19 08:39:32;;;;;;;3.47;1.73;;;;;;;22.57;43.07;101315.91;4971680;28;20053;-66
2021/06/19 08:41:58;;;;;;;5.28;1.73;;;;;;;22.57;42.99;101316.75;4989078;28;20036;-65
2021/06/19 08:44:27;;;;;;;3.15;1.50;;;;;;;22.57;43.11;101322.09;4960853;28;20033;-65
2021/06/19 08:46:54;;;;;;;10.32;2.38;;;;;;;22.57;43.21;101311.41;4981634;28;20070;-63
2021/06/19 08:49:20;;;;;;;5.60;2.08;;;;;;;22.57;43.08;101311.41;4983678;28;20045;-64
2021/06/19 08:51:46;;;;;;;6.47;1.90;;;;;;;22.57;43.27;101315.91;4973224;28;20058;-63
2021/06/19 08:54:13;;;;;;;6.97;1.70;;;;;;;22.56;43.22;101315.06;4988157;28;20121;-63
2021/06/19 08:56:43;;;;;;;7.18;2.20;;;;;;;22.54;42.83;101301.09;4962567;28;20042;-65
2021/06/19 08:59:09;;;;;;;5.15;1.85;;;;;;;22.55;42.77;101307.25;4991232;28;20033;-64
2021/06/19 09:01:35;;;;;;;7.43;1.80;;;;;;;22.51;42.43;101306.84;4974901;28;20314;-70
2021/06/19 09:04:04;;;;;;;5.30;2.00;;;;;;;22.47;42.50;101302.94;5004394;28;20037;-64
2021/06/19 09:06:31;;;;;;;6.93;1.65;;;;;;;22.42;42.29;101300.06;4990858;28;20042;-64
2021/06/19 09:09:15;;;;;;;4.93;1.80;;;;;;;22.38;42.05;101290.78;4986469;28;20030;-65
2021/06/19 09:11:44;;;;;;;8.15;1.77;;;;;;;22.35;42.04;101283.19;4998257;28;20034;-64
2021/06/19 09:14:14;;;;;;;7.50;1.70;;;;;;;22.32;41.80;101276.41;5008341;28;21786;-64
2021/06/19 09:16:42;;;;;;;5.53;1.92;;;;;;;22.30;41.53;101282.97;4981327;28;20464;-64
2021/06/19 09:19:28;;;;;;;11.85;2.30;;;;;;;22.24;41.62;101278.41;4990163;28;20132;-67
2021/06/19 09:22:18;;;;;;;8.80;2.25;;;;;;;22.23;41.79;101279.44;4982054;28;20380;-65
2021/06/19 09:24:46;;;;;;;6.13;1.67;;;;;;;22.23;41.81;101269.59;5008093;28;20030;-65
2021/06/19 09:27:32;;;;;;;7.35;1.33;;;;;;;22.19;41.40;101273.69;5009020;28;20022;-64
2021/06/19 09:30:23;;;;;;;4.50;1.65;;;;;;;22.18;41.72;101263.22;5006864;28;20107;-65
2021/06/19 09:33:00;;;;;;;5.70;2.03;;;;;;;22.18;41.41;101263.22;5008195;28;20392;-69
2021/06/19 09:35:31;;;;;;;6.45;1.90;;;;;;;22.16;41.64;101260.75;4999313;28;20469;-64
2021/06/19 09:38:00;;;;;;;4.22;1.80;;;;;;;22.16;41.57;101262.59;5011640;28;20030;-64
2021/06/19 09:40:42;;;;;;;5.88;1.80;;;;;;;22.14;41.24;101249.44;5000793;28;20040;-65
2021/06/19 09:43:23;;;;;;;5.88;2.03;;;;;;;22.11;41.70;101248.00;5012819;28;20422;-66
2021/06/19 09:46:00;;;;;;;3.65;1.50;;;;;;;22.12;41.63;101248.81;5000350;28;20026;-64
2021/06/19 09:48:31;;;;;;;4.25;1.33;;;;;;;22.13;41.30;101242.44;5011260;28;20030;-65
2021/06/19 09:51:20;;;;;;;5.47;2.05;;;;;;;22.12;41.30;101240.81;4994916;28;20060;-67
2021/06/19 09:54:01;;;;;;;4.90;1.88;;;;;;;22.13;41.59;101242.44;5010522;28;20025;-67
2021/06/19 09:56:27;;;;;;;3.70;1.40;;;;;;;22.14;41.75;101236.06;4994831;28;20038;-65
2021/06/19 09:58:53;;;;;;;4.70;1.80;;;;;;;22.13;41.33;101234.44;5012174;28;20034;-65
2021/06/19 10:01:40;;;;;;;5.65;1.45;;;;;;;22.10;41.59;101224.16;5012559;28;20041;-67
2021/06/19 10:04:06;;;;;;;4.70;1.70;;;;;;;22.14;41.41;101214.69;5011036;28;20152;-66
2021/06/19 10:06:35;;;;;;;3.25;1.30;;;;;;;22.13;41.44;101210.38;5012494;28;20393;-65
2021/06/19 10:09:01;;;;;;;4.25;1.45;;;;;;;22.12;41.39;101208.75;5011680;28;20033;-65
2021/06/19 10:11:28;;;;;;;4.85;1.85;;;;;;;22.11;41.45;101201.75;5011976;28;20488;-66
2021/06/19 10:13:55;;;;;;;4.82;1.65;;;;;;;22.10;41.33;101198.25;4993160;28;20062;-64
2021/06/19 10:16:23;;;;;;;5.10;1.35;;;;;;;22.08;41.15;101194.94;5012059;28;20053;-64
2021/06/19 10:18:50;;;;;;;5.78;1.50;;;;;;;22.08;41.34;101194.94;4991982;28;20472;-64
2021/06/19 10:21:16;;;;;;;2.55;1.27;;;;;;;22.09;41.33;101191.28;4994386;28;20043;-66
2021/06/19 10:23:43;;;;;;;5.15;1.27;;;;;;;22.07;40.95;101189.81;4993984;28;20042;-65
2021/06/19 10:26:09;;;;;;;6.47;1.65;;;;;;;22.07;40.91;101190.63;5011858;28;20065;-65
2021/06/19 10:28:48;;;;;;;3.92;1.45;;;;;;;22.04;40.58;101196.34;4994259;28;20037;-71
2021/06/19 10:31:18;;;;;;;4.00;1.40;;;;;;;22.05;40.76;101198.03;5011879;28;20038;-65
2021/06/19 10:33:43;;;;;;;5.10;1.60;;;;;;;;;;5011110;28;20037;-64
2021/06/19 10:36:11;;;;;;;5.30;1.83;;;;;;;22.04;40.42;101191.00;4994387;28;20038;-65
2021/06/19 10:38:57;;;;;;;4.93;1.48;;;;;;;22.01;40.44;101182.59;5011430;28;20057;-64
2021/06/19 10:41:43;;;;;;;5.60;1.77;;;;;;;22.01;40.58;101188.75;5011749;28;20108;-65
2021/06/19 10:44:10;;;;;;;4.32;1.60;;;;;;;21.99;39.99;101188.13;5000322;28;20049;-66
2021/06/19 10:46:37;;;;;;;4.13;1.50;;;;;;;21.98;40.15;101183.00;4998165;28;20129;-67
2021/06/19 10:49:22;;;;;;;5.93;2.05;;;;;;;21.94;40.31;101192.47;4992327;28;20065;-66
2021/06/19 10:51:48;;;;;;;3.40;1.50;;;;;;;21.94;40.22;101182.59;5010428;28;20042;-65
2021/06/19 10:54:27;;;;;;;4.05;1.60;;;;;;;21.93;39.92;101185.44;5010443;28;20052;-65
2021/06/19 10:56:57;;;;;;;7.30;1.73;;;;;;;21.91;39.92;101184.81;5011065;28;20513;-64
2021/06/19 10:59:25;;;;;;;5.72;1.73;;;;;;;21.91;40.16;101176.81;5011184;28;20490;-65
2021/06/19 11:01:53;;;;;;;4.68;1.83;;;;;;;21.90;40.06;101176.00;4993228;28;20034;-64
2021/06/19 11:04:38;;;;;;;4.68;1.80;;;;;;;21.85;40.05;101169.63;5010601;28;20493;-65
2021/06/19 11:07:23;;;;;;;5.78;2.05;;;;;;;21.85;40.05;101173.13;4993328;28;20420;-64
2021/06/19 11:09:49;;;;;;;4.88;1.50;;;;;;;21.88;40.17;101170.03;4970197;28;20038;-67
2021/06/19 11:12:31;;;;;;;3.58;1.45;;;;;;;21.87;39.91;101175.59;4992866;28;20420;-64
2021/06/19 11:15:08;;;;;;;3.35;1.90;;;;;;;21.86;40.21;101180.09;5010700;28;20056;-64
2021/06/19 11:17:33;;;;;;;4.50;1.65;;;;;;;21.87;40.15;101175.59;4993149;28;20030;-67
2021/06/19 11:20:08;;;;;;;5.82;1.70;;;;;;;21.85;40.17;101170.44;5010490;28;20440;-65
2021/06/19 11:22:39;;;;;;;4.90;1.52;;;;;;;21.85;40.38;101169.63;4993072;28;20116;-68
2021/06/19 11:28:16;;;;;;;4.88;1.67;;;;;;;21.82;40.06;101162.84;5009318;28;20041;-66
2021/06/19 11:30:44;;;;;;;;;;;;;;;21.76;40.31;101161.78;5010955;28;20030;-66
2021/06/19 11:33:15;;;;;;;5.25;1.90;;;;;;;21.79;40.32;101156.06;4991862;28;19917;-64
2021/06/19 11:35:42;;;;;;;4.03;1.65;;;;;;;21.80;40.18;101151.53;5010669;28;20034;-65